Time;durP1;ratioP1;P1;durP2;ratioP2;P2;SDS_P1;SDS_P2;PMS_P1;PMS_P2;Temp;Humidity;BMP_temperature;BMP_pressure;BME280_temperature;BME280_humidity;BME280_pressure;Samples;Min_cycle;Max_cycle;Signal;HPM_P1;HPM_P2
2022/12/29 00:01:22;;;;;;;6.80;3.50;;;;;;;;;;108096;1261;40473;-42
2022/12/29 00:03:53;;;;;;;7.10;3.40;;;;;;;;;;108194;1260;44615;-42
2022/12/29 00:06:23;;;;;;;6.80;3.70;;;;;;;;;;108183;1257;42121;-42
2022/12/29 00:08:53;;;;;;;5.70;3.50;;;;;;;;;;108151;1260;40209;-43
2022/12/29 00:11:26;;;;;;;7.00;3.60;;;;;;;;;;108126;1259;40495;-42
2022/12/29 00:16:55;;;;;;;5.80;3.50;;;;;;;;;;108099;1270;42575;-46
2022/12/29 00:36:35;;;;;;;6.50;3.70;;;;;;;;;;108108;1266;43236;-40
2022/12/29 00:44:58;;;;;;;5.90;3.30;;;;;;;;;;108187;1260;40186;-40
2022/12/29 00:47:30;;;;;;;6.90;3.50;;;;;;;;;;108206;1272;43003;-39
2022/12/29 00:50:06;;;;;;;6.00;3.30;;;;;;;;;;108051;1260;175770;-40
2022/12/29 00:52:39;;;;;;;5.90;3.60;;;;;;;;;;108134;1259;38845;-40
2022/12/29 00:55:12;;;;;;;7.40;3.50;;;;;;;;;;108044;1263;175417;-40
2022/12/29 00:57:43;;;;;;;5.80;3.30;;;;;;;;;;108146;1272;44719;-40
2022/12/29 01:00:15;;;;;;;5.70;3.70;;;;;;;;;;108144;1268;43107;-40
2022/12/29 01:02:45;;;;;;;;;;;;;;;;;;108191;1260;38634;-40
2022/12/29 01:05:18;;;;;;;6.70;3.40;;;;;;;;;;108178;1269;40024;-40
2022/12/29 01:07:48;;;;;;;6.40;3.60;;;;;;;;;;108195;1260;43046;-40
2022/12/29 01:10:18;;;;;;;7.50;3.40;;;;;;;;;;108140;1272;43540;-40
2022/12/29 01:12:50;;;;;;;5.60;3.30;;;;;;;;;;108093;1257;37844;-40
2022/12/29 01:15:20;;;;;;;6.40;3.40;;;;;;;;;;108109;1262;40310;-40
2022/12/29 01:17:56;;;;;;;5.60;3.10;;;;;;;;;;108120;1273;46175;-41
2022/12/29 01:20:29;;;;;;;6.20;3.40;;;;;;;;;;108139;1270;42302;-40
2022/12/29 01:23:01;;;;;;;5.90;3.70;;;;;;;;;;108151;1260;38938;-42
2022/12/29 01:25:31;;;;;;;5.80;3.10;;;;;;;;;;108179;1257;39909;-40
2022/12/29 01:28:08;;;;;;;5.50;3.20;;;;;;;;;;108206;1260;42858;-40
2022/12/29 01:30:38;;;;;;;6.20;3.20;;;;;;;;;;108235;1260;43331;-40
2022/12/29 01:33:13;;;;;;;5.80;2.90;;;;;;;;;;108103;1262;38847;-41
2022/12/29 01:35:43;;;;;;;5.50;3.30;;;;;;;;;;108135;1262;41299;-40
2022/12/29 01:38:13;;;;;;;6.90;3.50;;;;;;;;;;108132;1270;44543;-40
2022/12/29 01:40:49;;;;;;;5.50;3.10;;;;;;;;;;108134;1262;41858;-40
2022/12/29 01:43:19;;;;;;;5.20;3.00;;;;;;;;;;108136;1260;38846;-42
2022/12/29 01:45:54;;;;;;;5.40;3.40;;;;;;;;;;108154;1260;39931;-40
2022/12/29 01:48:30;;;;;;;5.20;2.80;;;;;;;;;;108158;1269;44490;-41
2022/12/29 01:51:00;;;;;;;5.60;3.10;;;;;;;;;;108188;1260;42220;-40
2022/12/29 01:53:37;;;;;;;6.40;3.10;;;;;;;;;;108099;1262;37785;-41
2022/12/29 01:56:14;;;;;;;6.00;3.00;;;;;;;;;;108126;1271;40377;-40
2022/12/29 01:58:50;;;;;;;5.30;3.20;;;;;;;;;;108110;1262;43414;-40
2022/12/29 02:01:26;;;;;;;6.10;3.00;;;;;;;;;;108112;1273;42698;-40
2022/12/29 02:03:57;;;;;;;5.50;3.40;;;;;;;;;;108141;1260;38704;-40
2022/12/29 02:06:35;;;;;;;5.70;3.40;;;;;;;;;;108139;1272;40051;-41
2022/12/29 02:09:05;;;;;;;6.10;3.50;;;;;;;;;;108111;1267;43224;-40
2022/12/29 02:11:37;;;;;;;6.10;3.30;;;;;;;;;;108180;1266;42127;-40
2022/12/29 02:14:12;;;;;;;5.80;3.00;;;;;;;;;;108135;1262;38828;-41
2022/12/29 02:17:00;;;;;;;5.90;3.60;;;;;;;;;;108151;1273;39891;-40
2022/12/29 02:20:26;;;;;;;4.90;3.20;;;;;;;;;;108130;1272;43265;-42
2022/12/29 02:23:20;;;;;;;5.50;2.80;;;;;;;;;;107970;1264;44085;-40
2022/12/29 02:26:23;;;;;;;5.70;2.80;;;;;;;;;;108169;1263;38849;-40
2022/12/29 02:29:41;;;;;;;5.40;2.70;;;;;;;;;;108148;1266;40176;-40
2022/12/29 02:32:18;;;;;;;5.60;3.10;;;;;;;;;;107977;1272;43424;-40
2022/12/29 02:34:57;;;;;;;4.90;2.70;;;;;;;;;;108126;1262;42170;-41
2022/12/29 02:37:40;;;;;;;5.80;3.00;;;;;;;;;;108120;1273;38683;-40
2022/12/29 02:40:24;;;;;;;5.50;3.20;;;;;;;;;;108121;1269;40234;-40
2022/12/29 02:43:04;;;;;;;;;;;;;;;;;;108142;1262;43600;-40
2022/12/29 02:45:41;;;;;;;5.50;2.90;;;;;;;;;;108197;1260;49131;-41
2022/12/29 02:48:23;;;;;;;5.70;2.90;;;;;;;;;;108210;1260;38969;-40
2022/12/29 02:51:01;;;;;;;5.10;2.80;;;;;;;;;;108192;1265;40201;-40
2022/12/29 02:56:23;;;;;;;6.10;3.30;;;;;;;;;;108133;1262;41993;-40
2022/12/29 02:58:56;;;;;;;5.20;3.00;;;;;;;;;;108141;1262;39115;-40
2022/12/29 03:02:16;;;;;;;5.50;2.80;;;;;;;;;;108089;1269;40150;-41
2022/12/29 03:04:53;;;;;;;5.70;2.70;;;;;;;;;;108115;1260;44448;-40
2022/12/29 03:07:33;;;;;;;5.30;3.10;;;;;;;;;;108238;1269;42428;-41
2022/12/29 03:10:15;;;;;;;5.40;2.70;;;;;;;;;;108199;1260;39393;-40
2022/12/29 03:16:03;;;;;;;5.30;3.00;;;;;;;;;;108107;1269;43350;-40
2022/12/29 03:18:47;;;;;;;4.80;2.50;;;;;;;;;;108154;1269;42500;-40
2022/12/29 03:24:23;;;;;;;4.90;2.90;;;;;;;;;;108094;1257;40672;-40
2022/12/29 03:27:00;;;;;;;5.80;2.70;;;;;;;;;;108219;1260;43303;-40
2022/12/29 03:29:42;;;;;;;4.60;2.50;;;;;;;;;;108199;1269;42645;-41
2022/12/29 03:32:18;;;;;;;4.80;2.30;;;;;;;;;;108207;1257;38897;-42
2022/12/29 03:34:52;;;;;;;5.40;3.00;;;;;;;;;;108158;1260;40182;-41
2022/12/29 03:37:36;;;;;;;5.50;2.80;;;;;;;;;;108148;1262;43397;-41
2022/12/29 03:40:11;;;;;;;4.90;2.40;;;;;;;;;;108148;1262;42200;-41
2022/12/29 03:42:50;;;;;;;4.70;2.80;;;;;;;;;;108191;1272;38823;-41
2022/12/29 03:45:27;;;;;;;4.50;2.30;;;;;;;;;;108133;1260;40385;-41
2022/12/29 03:48:05;;;;;;;6.20;3.00;;;;;;;;;;108214;1269;43300;-41
2022/12/29 03:50:45;;;;;;;5.10;2.60;;;;;;;;;;108223;1260;42297;-41
2022/12/29 03:53:19;;;;;;;5.10;2.40;;;;;;;;;;108194;1260;38610;-41
2022/12/29 03:55:59;;;;;;;4.40;2.50;;;;;;;;;;108113;1260;40399;-42
2022/12/29 03:58:41;;;;;;;5.10;2.60;;;;;;;;;;108119;1259;43247;-41
2022/12/29 04:01:19;;;;;;;4.70;2.60;;;;;;;;;;108110;1271;42207;-41
2022/12/29 04:04:00;;;;;;;4.70;2.30;;;;;;;;;;108136;1269;39122;-41
2022/12/29 04:06:38;;;;;;;4.70;2.50;;;;;;;;;;108133;1262;40180;-41
2022/12/29 04:09:11;;;;;;;4.90;2.60;;;;;;;;;;108147;1272;43572;-41
2022/12/29 04:11:44;;;;;;;4.70;2.40;;;;;;;;;;108234;1265;42204;-41
2022/12/29 04:14:22;;;;;;;4.70;2.40;;;;;;;;;;108241;1269;38894;-41
2022/12/29 04:16:57;;;;;;;5.00;2.90;;;;;;;;;;107467;1266;895463;-41
2022/12/29 04:19:37;;;;;;;4.40;2.50;;;;;;;;;;108130;1269;43203;-41
2022/12/29 04:22:18;;;;;;;4.60;2.60;;;;;;;;;;108181;1261;42186;-41
2022/12/29 04:24:52;;;;;;;4.60;2.40;;;;;;;;;;107979;1257;39095;-41
2022/12/29 04:27:27;;;;;;;5.00;2.50;;;;;;;;;;108181;1260;45949;-41
2022/12/29 04:30:02;;;;;;;5.10;2.70;;;;;;;;;;108196;1270;43226;-41
2022/12/29 04:32:35;;;;;;;5.20;2.20;;;;;;;;;;108239;1262;42156;-41
2022/12/29 04:35:09;;;;;;;5.30;2.50;;;;;;;;;;108219;1270;38895;-41
2022/12/29 04:37:42;;;;;;;5.70;2.40;;;;;;;;;;108274;1262;45780;-41
2022/12/29 04:40:17;;;;;;;4.90;2.40;;;;;;;;;;108187;1270;43489;-41
2022/12/29 04:42:50;;;;;;;4.60;2.40;;;;;;;;;;108184;1272;43602;-41
2022/12/29 04:45:20;;;;;;;4.60;2.30;;;;;;;;;;108185;1273;39012;-41
2022/12/29 04:47:55;;;;;;;4.70;2.80;;;;;;;;;;107504;1272;894864;-41
2022/12/29 04:50:26;;;;;;;4.70;2.40;;;;;;;;;;108227;1269;43489;-41
2022/12/29 04:53:04;;;;;;;5.60;2.50;;;;;;;;;;108226;1270;42191;-41
2022/12/29 04:55:38;;;;;;;4.50;2.20;;;;;;;;;;108250;1260;40071;-41
2022/12/29 04:58:16;;;;;;;4.50;2.50;;;;;;;;;;108013;1262;175834;-42
2022/12/29 05:00:58;;;;;;;4.50;2.00;;;;;;;;;;108177;1265;44625;-41
2022/12/29 05:03:31;;;;;;;4.50;2.40;;;;;;;;;;108148;1262;42163;-41
2022/12/29 05:06:08;;;;;;;5.00;2.20;;;;;;;;;;108098;1257;38808;-41
2022/12/29 05:08:40;;;;;;;4.90;2.30;;;;;;;;;;108269;1260;47219;-41
2022/12/29 05:11:10;;;;;;;;;;;;;;;;;;108306;1269;43513;-41
2022/12/29 05:13:46;;;;;;;4.00;2.20;;;;;;;;;;108198;1260;41375;-41
2022/12/29 05:16:20;;;;;;;4.60;2.60;;;;;;;;;;108222;1266;38798;-41
2022/12/29 05:18:53;;;;;;;4.20;2.00;;;;;;;;;;108209;1262;46224;-41
2022/12/29 05:21:25;;;;;;;4.10;2.00;;;;;;;;;;108219;1263;43237;-40
2022/12/29 05:23:55;;;;;;;6.10;2.60;;;;;;;;;;107972;1265;315152;-41
2022/12/29 05:26:28;;;;;;;5.00;2.50;;;;;;;;;;108216;1262;37821;-41
2022/12/29 05:29:02;;;;;;;5.00;2.80;;;;;;;;;;108332;1263;46176;-41
2022/12/29 05:31:33;;;;;;;4.50;2.20;;;;;;;;;;108366;1260;43328;-41
2022/12/29 05:34:04;;;;;;;4.50;2.50;;;;;;;;;;108386;1273;42001;-40
2022/12/29 05:36:36;;;;;;;4.10;2.10;;;;;;;;;;108367;1269;39016;-41
2022/12/29 05:39:08;;;;;;;4.30;2.30;;;;;;;;;;108256;1264;40451;-41
2022/12/29 05:41:38;;;;;;;4.00;2.00;;;;;;;;;;108260;1271;43502;-41
2022/12/29 05:44:11;;;;;;;4.60;2.30;;;;;;;;;;108291;1262;42167;-41
2022/12/29 05:46:43;;;;;;;5.00;2.70;;;;;;;;;;108299;1271;39054;-41
2022/12/29 05:49:15;;;;;;;5.10;2.50;;;;;;;;;;108323;1260;40014;-41
2022/12/29 05:51:46;;;;;;;4.40;2.20;;;;;;;;;;108326;1272;44532;-41
2022/12/29 05:54:18;;;;;;;4.60;2.30;;;;;;;;;;108339;1261;42118;-41
2022/12/29 05:56:54;;;;;;;7.00;2.60;;;;;;;;;;108342;1261;38966;-41
2022/12/29 05:59:25;;;;;;;5.30;2.40;;;;;;;;;;108169;1262;40323;-41
2022/12/29 06:01:55;;;;;;;5.00;2.50;;;;;;;;;;108254;1262;43369;-41
2022/12/29 06:04:28;;;;;;;4.70;2.50;;;;;;;;;;108146;1267;42325;-40
2022/12/29 06:07:00;;;;;;;4.20;2.40;;;;;;;;;;108209;1262;38927;-41
2022/12/29 06:09:30;;;;;;;5.00;2.30;;;;;;;;;;108167;1261;40505;-41
2022/12/29 06:12:07;;;;;;;4.80;2.70;;;;;;;;;;108091;1271;175440;-41
2022/12/29 06:14:39;;;;;;;4.40;2.40;;;;;;;;;;108186;1269;42391;-42
2022/12/29 06:17:11;;;;;;;4.50;2.30;;;;;;;;;;108219;1269;39155;-41
2022/12/29 06:19:50;;;;;;;4.40;2.30;;;;;;;;;;108106;1262;40256;-41
2022/12/29 06:22:20;;;;;;;5.60;2.90;;;;;;;;;;108125;1262;43430;-40
2022/12/29 06:24:56;;;;;;;4.00;2.20;;;;;;;;;;108149;1262;42339;-40
2022/12/29 06:27:34;;;;;;;4.30;2.10;;;;;;;;;;108126;1265;39044;-41
2022/12/29 06:30:11;;;;;;;5.90;2.60;;;;;;;;;;108165;1260;40248;-41
2022/12/29 06:32:46;;;;;;;4.50;2.50;;;;;;;;;;108243;1262;43246;-41
2022/12/29 06:35:17;;;;;;;4.80;2.40;;;;;;;;;;108283;1269;42748;-41
2022/12/29 06:37:49;;;;;;;5.10;2.40;;;;;;;;;;108224;1270;38849;-41
2022/12/29 06:40:26;;;;;;;5.10;2.40;;;;;;;;;;108123;1262;40713;-41
2022/12/29 06:43:03;;;;;;;4.50;2.30;;;;;;;;;;108093;1265;43246;-41
2022/12/29 06:45:35;;;;;;;4.60;2.40;;;;;;;;;;108161;1273;42277;-41
2022/12/29 06:48:06;;;;;;;5.00;2.40;;;;;;;;;;108151;1269;38846;-41
2022/12/29 06:50:43;;;;;;;4.60;2.20;;;;;;;;;;108341;1261;40076;-42
2022/12/29 06:53:14;;;;;;;4.20;2.50;;;;;;;;;;108254;1260;43436;-41
2022/12/29 06:55:49;;;;;;;4.20;2.20;;;;;;;;;;108241;1261;42327;-41
2022/12/29 06:58:25;;;;;;;4.80;2.70;;;;;;;;;;108256;1262;38916;-41
2022/12/29 07:00:59;;;;;;;4.40;2.40;;;;;;;;;;108128;1262;46381;-41
2022/12/29 07:03:36;;;;;;;5.50;2.70;;;;;;;;;;108133;1262;43254;-41
2022/12/29 07:06:08;;;;;;;4.90;2.50;;;;;;;;;;105922;1272;3011547;-41
2022/12/29 07:08:43;;;;;;;5.60;2.60;;;;;;;;;;108225;1261;38886;-41
2022/12/29 07:11:15;;;;;;;5.00;2.90;;;;;;;;;;108278;1262;46825;-41
2022/12/29 07:13:51;;;;;;;5.30;2.40;;;;;;;;;;108224;1262;43109;-41
2022/12/29 07:16:29;;;;;;;4.70;2.90;;;;;;;;;;108242;1264;42223;-41
2022/12/29 07:19:00;;;;;;;4.20;2.30;;;;;;;;;;108246;1260;39006;-41
2022/12/29 07:21:39;;;;;;;;;;;;;;;;;;108108;1260;48441;-41
2022/12/29 07:24:18;;;;;;;4.70;2.50;;;;;;;;;;108184;1262;43480;-41
2022/12/29 07:26:59;;;;;;;4.80;2.50;;;;;;;;;;108146;1261;42499;-41
2022/12/29 07:29:35;;;;;;;4.80;2.60;;;;;;;;;;108168;1257;38982;-42
2022/12/29 07:32:10;;;;;;;5.30;2.70;;;;;;;;;;108211;1272;47720;-41
2022/12/29 07:34:45;;;;;;;5.00;2.70;;;;;;;;;;108259;1272;43467;-41
2022/12/29 07:37:19;;;;;;;4.60;2.50;;;;;;;;;;108177;1269;175699;-41
2022/12/29 07:39:51;;;;;;;4.70;2.40;;;;;;;;;;108263;1256;38836;-41
2022/12/29 07:42:22;;;;;;;5.00;2.70;;;;;;;;;;108202;1259;47461;-42
2022/12/29 07:45:00;;;;;;;4.80;2.60;;;;;;;;;;108222;1263;43422;-41
2022/12/29 07:47:32;;;;;;;4.20;2.40;;;;;;;;;;108136;1262;42210;-41
2022/12/29 07:50:04;;;;;;;5.40;2.80;;;;;;;;;;108095;1262;38983;-40
2022/12/29 07:52:40;;;;;;;4.80;2.70;;;;;;;;;;108229;1265;46397;-40
2022/12/29 07:55:15;;;;;;;4.70;2.60;;;;;;;;;;107531;1262;894374;-41
2022/12/29 07:57:46;;;;;;;4.70;2.60;;;;;;;;;;108211;1262;42163;-41
2022/12/29 08:00:25;;;;;;;4.50;2.40;;;;;;;;;;108169;1256;39146;-40
2022/12/29 08:03:04;;;;;;;5.40;2.70;;;;;;;;;;108091;1261;46165;-41
2022/12/29 08:05:41;;;;;;;4.60;2.50;;;;;;;;;;108182;1262;43316;-41
2022/12/29 08:08:11;;;;;;;4.80;2.80;;;;;;;;;;108159;1262;42196;-41
2022/12/29 08:10:46;;;;;;;4.60;2.70;;;;;;;;;;108188;1261;38948;-41
2022/12/29 08:13:17;;;;;;;4.70;2.60;;;;;;;;;;107584;1262;894246;-41
2022/12/29 08:15:56;;;;;;;5.00;2.60;;;;;;;;;;108190;1262;43365;-41
2022/12/29 08:18:30;;;;;;;5.70;2.90;;;;;;;;;;108212;1269;42394;-41
2022/12/29 08:21:05;;;;;;;5.20;3.10;;;;;;;;;;108158;1259;38996;-40
2022/12/29 08:23:37;;;;;;;5.00;3.10;;;;;;;;;;108154;1263;45876;-42
2022/12/29 08:26:11;;;;;;;5.20;3.50;;;;;;;;;;108150;1272;43310;-41
2022/12/29 08:28:41;;;;;;;6.00;3.40;;;;;;;;;;108312;1262;42212;-41
2022/12/29 08:31:16;;;;;;;5.50;3.10;;;;;;;;;;108308;1272;38936;-41
2022/12/29 08:33:47;;;;;;;5.30;2.90;;;;;;;;;;108299;1262;41503;-41
2022/12/29 08:36:20;;;;;;;5.10;3.10;;;;;;;;;;108405;1267;42983;-41
2022/12/29 08:38:52;;;;;;;5.20;3.30;;;;;;;;;;108376;1269;42295;-41
2022/12/29 08:41:25;;;;;;;6.40;3.50;;;;;;;;;;108349;1262;38988;-41
2022/12/29 08:43:55;;;;;;;4.80;2.80;;;;;;;;;;108254;1262;40167;-43
2022/12/29 08:46:28;;;;;;;4.90;2.90;;;;;;;;;;108304;1262;43449;-42
2022/12/29 08:49:03;;;;;;;5.60;3.00;;;;;;;;;;108303;1262;42348;-42
2022/12/29 08:51:38;;;;;;;5.60;3.10;;;;;;;;;;108126;1271;38770;-40
2022/12/29 08:54:12;;;;;;;5.50;2.80;;;;;;;;;;108170;1262;47345;-41
2022/12/29 08:56:47;;;;;;;5.60;3.10;;;;;;;;;;108105;1273;43210;-42
2022/12/29 08:59:25;;;;;;;6.40;3.00;;;;;;;;;;108218;1262;42104;-41
2022/12/29 09:02:01;;;;;;;4.50;2.90;;;;;;;;;;108210;1261;38907;-41
2022/12/29 09:04:36;;;;;;;4.80;2.70;;;;;;;;;;108306;1263;45744;-42
2022/12/29 09:07:12;;;;;;;5.10;3.10;;;;;;;;;;108227;1272;43395;-37
2022/12/29 09:09:44;;;;;;;4.90;2.80;;;;;;;;;;108115;1262;42270;-41
2022/12/29 09:12:19;;;;;;;5.90;2.70;;;;;;;;;;108172;1271;38894;-39
2022/12/29 09:14:49;;;;;;;5.30;2.90;;;;;;;;;;108133;1268;45782;-42
2022/12/29 09:20:10;;;;;;;5.00;3.00;;;;;;;;;;108131;1273;41976;-42
2022/12/29 09:22:44;;;;;;;5.10;2.90;;;;;;;;;;108164;1272;38613;-41
2022/12/29 09:25:19;;;;;;;4.70;2.30;;;;;;;;;;108275;1261;46225;-41
2022/12/29 09:27:49;;;;;;;6.40;3.00;;;;;;;;;;108239;1262;43246;-42
2022/12/29 09:30:22;;;;;;;5.00;2.70;;;;;;;;;;108266;1263;42440;-41
2022/12/29 09:32:52;;;;;;;5.00;2.90;;;;;;;;;;108267;1260;38825;-42
2022/12/29 09:35:30;;;;;;;5.70;2.60;;;;;;;;;;108143;1262;39971;-40
2022/12/29 09:38:05;;;;;;;5.50;3.00;;;;;;;;;;108151;1272;43253;-42
2022/12/29 09:40:40;;;;;;;5.20;2.80;;;;;;;;;;108113;1276;44604;-44
2022/12/29 09:43:49;;;;;;;5.50;2.70;;;;;;;;;;108104;1260;38992;-38
2022/12/29 09:46:29;;;;;;;5.10;2.60;;;;;;;;;;108256;1263;49214;-41
2022/12/29 09:49:16;;;;;;;6.40;3.10;;;;;;;;;;108252;1262;43390;-38
2022/12/29 09:51:51;;;;;;;7.20;2.90;;;;;;;;;;108233;1267;42167;-43
2022/12/29 09:54:40;;;;;;;5.20;2.60;;;;;;;;;;108189;1264;38862;-41
2022/12/29 09:57:20;;;;;;;5.20;2.50;;;;;;;;;;108162;1262;40200;-36
2022/12/29 09:59:59;;;;;;;4.70;2.60;;;;;;;;;;108189;1262;43246;-36
2022/12/29 10:02:39;;;;;;;4.60;2.60;;;;;;;;;;108164;1263;42183;-42
2022/12/29 10:05:30;;;;;;;5.10;2.60;;;;;;;;;;108165;1262;38879;-40
2022/12/29 10:08:15;;;;;;;5.50;2.70;;;;;;;;;;108211;1263;40148;-39
2022/12/29 10:10:56;;;;;;;5.50;2.50;;;;;;;;;;108219;1270;43230;-40
2022/12/29 10:13:47;;;;;;;5.40;3.00;;;;;;;;;;108247;1273;41985;-39
2022/12/29 10:16:32;;;;;;;5.00;2.50;;;;;;;;;;108231;1263;38843;-39
2022/12/29 10:19:32;;;;;;;4.70;2.40;;;;;;;;;;108243;1272;39929;-37
2022/12/29 10:22:18;;;;;;;4.80;2.60;;;;;;;;;;108262;1272;44658;-37
2022/12/29 10:24:50;;;;;;;5.10;2.80;;;;;;;;;;108207;1257;43458;-37
2022/12/29 10:27:23;;;;;;;5.00;2.60;;;;;;;;;;108100;1269;39837;-37
2022/12/29 10:29:57;;;;;;;5.80;2.70;;;;;;;;;;108279;1273;41624;-37
2022/12/29 10:32:35;;;;;;;4.30;2.40;;;;;;;;;;108234;1270;44585;-36
2022/12/29 10:35:16;;;;;;;6.00;3.10;;;;;;;;;;108282;1257;43544;-37
2022/12/29 10:37:54;;;;;;;4.60;2.50;;;;;;;;;;108279;1268;38853;-37
2022/12/29 10:40:33;;;;;;;5.80;2.60;;;;;;;;;;108257;1269;40100;-37
2022/12/29 10:43:18;;;;;;;4.70;2.80;;;;;;;;;;108250;1261;43283;-37
2022/12/29 10:45:52;;;;;;;5.20;3.00;;;;;;;;;;108185;1261;42217;-37
2022/12/29 10:48:26;;;;;;;5.10;2.60;;;;;;;;;;108170;1263;39981;-37
2022/12/29 10:51:05;;;;;;;4.90;2.60;;;;;;;;;;108179;1262;39972;-39
2022/12/29 10:53:48;;;;;;;5.00;2.40;;;;;;;;;;108175;1264;43382;-39
2022/12/29 10:56:31;;;;;;;4.60;2.70;;;;;;;;;;108105;1269;42090;-41
2022/12/29 10:59:11;;;;;;;4.60;2.50;;;;;;;;;;108210;1267;40188;-40
2022/12/29 11:01:50;;;;;;;5.60;2.90;;;;;;;;;;108108;1273;40334;-40
2022/12/29 11:04:41;;;;;;;4.90;2.70;;;;;;;;;;108121;1273;43065;-40
2022/12/29 11:07:12;;;;;;;5.40;2.90;;;;;;;;;;108005;1262;43460;-42
2022/12/29 11:09:47;;;;;;;4.90;2.40;;;;;;;;;;108146;1262;39002;-42
2022/12/29 11:12:27;;;;;;;5.00;2.70;;;;;;;;;;108136;1267;40180;-42
2022/12/29 11:15:15;;;;;;;5.30;2.90;;;;;;;;;;108096;1273;43086;-43
2022/12/29 11:17:49;;;;;;;4.90;2.70;;;;;;;;;;108203;1262;42510;-42
2022/12/29 11:20:33;;;;;;;5.20;2.80;;;;;;;;;;108013;1262;38722;-42
2022/12/29 11:23:23;;;;;;;5.00;2.80;;;;;;;;;;108210;1269;41470;-45
2022/12/29 11:26:18;;;;;;;5.30;2.80;;;;;;;;;;108239;1270;43692;-43
2022/12/29 11:29:10;;;;;;;6.10;2.70;;;;;;;;;;108018;1271;176157;-45
2022/12/29 11:31:45;;;;;;;4.40;2.40;;;;;;;;;;108233;1259;39067;-42
2022/12/29 11:34:23;;;;;;;5.70;2.90;;;;;;;;;;108244;1263;42160;-43
2022/12/29 11:37:00;;;;;;;4.50;2.60;;;;;;;;;;108168;1257;43410;-44
2022/12/29 11:39:40;;;;;;;5.40;2.70;;;;;;;;;;108199;1261;42073;-43
2022/12/29 11:42:18;;;;;;;6.10;3.20;;;;;;;;;;108309;1263;38848;-42
2022/12/29 11:44:50;;;;;;;5.70;3.20;;;;;;;;;;108224;1262;40314;-42
2022/12/29 11:47:30;;;;;;;5.70;2.80;;;;;;;;;;108196;1262;43234;-42
2022/12/29 11:50:03;;;;;;;5.30;3.30;;;;;;;;;;108240;1263;42182;-43
2022/12/29 11:52:39;;;;;;;4.90;2.80;;;;;;;;;;108233;1270;38922;-43
2022/12/29 11:55:22;;;;;;;6.20;3.10;;;;;;;;;;108217;1272;40305;-40
2022/12/29 11:57:57;;;;;;;5.30;3.20;;;;;;;;;;108157;1263;43748;-40
2022/12/29 12:00:32;;;;;;;6.60;3.20;;;;;;;;;;108169;1263;42778;-40
2022/12/29 12:03:08;;;;;;;6.50;4.00;;;;;;;;;;108132;1262;39185;-40
2022/12/29 12:05:52;;;;;;;5.80;3.30;;;;;;;;;;108131;1261;40025;-41
2022/12/29 12:08:36;;;;;;;5.60;3.20;;;;;;;;;;108011;1262;45528;-42
2022/12/29 12:11:17;;;;;;;6.50;3.30;;;;;;;;;;107986;1276;42142;-42
2022/12/29 12:14:01;;;;;;;5.20;3.30;;;;;;;;;;107990;1275;38682;-40
2022/12/29 12:16:39;;;;;;;4.80;2.90;;;;;;;;;;107970;1275;41399;-43
2022/12/29 12:19:20;;;;;;;4.90;2.80;;;;;;;;;;108083;1263;43544;-41
2022/12/29 12:21:59;;;;;;;6.10;3.40;;;;;;;;;;108137;1271;42347;-42
2022/12/29 12:24:42;;;;;;;5.10;3.30;;;;;;;;;;108125;1262;38835;-42
2022/12/29 12:27:17;;;;;;;6.00;3.10;;;;;;;;;;108156;1263;40187;-41
2022/12/29 12:29:56;;;;;;;6.30;3.30;;;;;;;;;;107964;1271;43229;-39
2022/12/29 12:32:42;;;;;;;5.30;3.10;;;;;;;;;;107979;1271;43613;-38
2022/12/29 12:35:24;;;;;;;5.30;3.00;;;;;;;;;;107988;1263;38862;-39
2022/12/29 12:38:16;;;;;;;6.20;3.30;;;;;;;;;;107983;1261;41432;-40
2022/12/29 12:41:03;;;;;;;5.20;2.90;;;;;;;;;;108115;1268;43332;-39
2022/12/29 12:43:53;;;;;;;6.20;3.00;;;;;;;;;;108183;1262;42154;-38
2022/12/29 12:47:05;;;;;;;6.40;3.10;;;;;;;;;;108119;1273;40362;-39
2022/12/29 12:50:12;;;;;;;7.10;5.50;;;;;;;;;;107970;1272;41542;-40
2022/12/29 12:53:04;;;;;;;7.80;5.60;;;;;;;;;;108027;1264;43544;-37
2022/12/29 12:55:54;;;;;;;6.60;4.80;;;;;;;;;;107996;1262;42306;-37
2022/12/29 12:58:36;;;;;;;7.40;4.40;;;;;;;;;;107985;1260;39346;-42
2022/12/29 13:01:24;;;;;;;6.70;4.30;;;;;;;;;;108187;1271;41462;-40
2022/12/29 13:04:16;;;;;;;5.70;4.00;;;;;;;;;;108241;1263;43535;-41
2022/12/29 13:06:53;;;;;;;6.10;4.40;;;;;;;;;;108199;1269;44026;-38
2022/12/29 13:09:43;;;;;;;7.10;4.20;;;;;;;;;;108199;1270;40302;-40
2022/12/29 13:12:31;;;;;;;5.90;4.10;;;;;;;;;;108225;1269;40370;-40
2022/12/29 13:15:19;;;;;;;8.20;4.60;;;;;;;;;;108118;1269;175681;-38
2022/12/29 13:17:56;;;;;;;6.40;4.40;;;;;;;;;;108252;1270;42381;-35
2022/12/29 13:20:36;;;;;;;8.10;4.50;;;;;;;;;;108235;1261;38923;-38
2022/12/29 13:23:16;;;;;;;6.60;4.40;;;;;;;;;;107930;1273;440360;-36
2022/12/29 13:25:54;;;;;;;6.30;4.50;;;;;;;;;;108211;1262;43356;-36
2022/12/29 13:28:30;;;;;;;6.30;4.20;;;;;;;;;;108209;1270;42307;-36
2022/12/29 13:31:09;;;;;;;6.80;4.50;;;;;;;;;;108187;1263;38898;-40
2022/12/29 13:33:52;;;;;;;7.30;4.40;;;;;;;;;;108117;1263;175336;-38
2022/12/29 13:36:26;;;;;;;6.80;4.70;;;;;;;;;;108238;1276;44618;-38
2022/12/29 13:39:05;;;;;;;6.10;4.30;;;;;;;;;;108171;1272;42292;-37
2022/12/29 13:41:41;;;;;;;6.60;3.90;;;;;;;;;;108190;1263;47689;-37
2022/12/29 13:44:22;;;;;;;6.50;4.20;;;;;;;;;;108210;1269;40385;-37
2022/12/29 13:46:54;;;;;;;5.50;4.10;;;;;;;;;;108209;1270;43240;-37
2022/12/29 13:49:25;;;;;;;7.00;4.00;;;;;;;;;;108190;1260;42279;-37
2022/12/29 13:51:58;;;;;;;6.20;3.90;;;;;;;;;;108207;1276;38666;-37
2022/12/29 13:54:40;;;;;;;5.90;4.00;;;;;;;;;;108216;1269;40320;-37
2022/12/29 13:57:18;;;;;;;5.80;4.00;;;;;;;;;;108234;1261;43205;-38
2022/12/29 14:00:04;;;;;;;5.80;3.70;;;;;;;;;;108100;1261;43509;-38
2022/12/29 14:02:46;;;;;;;7.10;3.60;;;;;;;;;;108007;1262;38797;-36
2022/12/29 14:05:32;;;;;;;6.60;4.00;;;;;;;;;;108024;1264;40506;-38
2022/12/29 14:08:04;;;;;;;5.60;3.70;;;;;;;;;;108003;1273;43335;-40
2022/12/29 14:10:37;;;;;;;5.90;4.20;;;;;;;;;;107957;1263;42156;-35
2022/12/29 14:13:13;;;;;;;6.00;4.10;;;;;;;;;;109702;1270;38788;-37
2022/12/29 14:15:46;;;;;;;6.10;3.70;;;;;;;;;;108129;1271;40485;-37
2022/12/29 14:18:21;;;;;;;5.50;3.30;;;;;;;;;;108169;1272;43225;-37
2022/12/29 14:20:57;;;;;;;6.20;3.60;;;;;;;;;;108033;1264;42292;-37
2022/12/29 14:23:40;;;;;;;6.70;3.90;;;;;;;;;;108037;1270;40135;-40
2022/12/29 14:26:17;;;;;;;5.70;3.90;;;;;;;;;;108022;1264;40197;-39
2022/12/29 14:28:48;;;;;;;5.50;3.70;;;;;;;;;;108046;1273;43357;-39
2022/12/29 14:31:41;;;;;;;6.70;3.80;;;;;;;;;;108022;1262;42542;-40
2022/12/29 14:34:39;;;;;;;7.10;3.70;;;;;;;;;;108090;1264;39019;-39
2022/12/29 14:37:25;;;;;;;6.20;3.50;;;;;;;;;;108143;1267;40182;-40
2022/12/29 14:40:14;;;;;;;5.20;3.20;;;;;;;;;;108159;1258;43230;-39
2022/12/29 14:42:45;;;;;;;6.00;3.70;;;;;;;;;;107921;1274;49010;-40
2022/12/29 14:45:32;;;;;;;5.80;3.70;;;;;;;;;;108031;1271;38816;-40
2022/12/29 14:48:30;;;;;;;5.40;3.30;;;;;;;;;;108000;1265;40172;-40
2022/12/29 14:51:03;;;;;;;5.30;3.20;;;;;;;;;;107986;1272;43245;-40
2022/12/29 14:53:51;;;;;;;6.10;3.60;;;;;;;;;;108160;1273;42285;-41
2022/12/29 14:56:26;;;;;;;5.60;3.40;;;;;;;;;;108000;1274;175662;-39
2022/12/29 14:59:00;;;;;;;5.70;3.60;;;;;;;;;;108161;1267;40184;-40
2022/12/29 15:01:43;;;;;;;5.90;3.80;;;;;;;;;;108061;1262;43340;-40
2022/12/29 15:04:22;;;;;;;6.50;3.50;;;;;;;;;;108029;1275;42277;-39
2022/12/29 15:06:53;;;;;;;6.00;3.20;;;;;;;;;;107951;1273;38866;-40
2022/12/29 15:09:30;;;;;;;6.00;3.40;;;;;;;;;;108048;1270;40102;-37
2022/12/29 15:12:12;;;;;;;5.50;3.70;;;;;;;;;;108027;1264;43434;-37
2022/12/29 15:14:54;;;;;;;5.90;3.50;;;;;;;;;;108028;1269;175748;-37
2022/12/29 15:17:30;;;;;;;6.10;3.40;;;;;;;;;;108161;1271;39239;-37
2022/12/29 15:20:14;;;;;;;6.20;3.50;;;;;;;;;;108147;1273;41466;-37
2022/12/29 15:22:46;;;;;;;6.00;3.70;;;;;;;;;;108009;1263;43501;-37
2022/12/29 15:25:18;;;;;;;6.20;3.60;;;;;;;;;;108038;1272;44926;-37
2022/12/29 15:27:53;;;;;;;6.70;3.20;;;;;;;;;;108042;1271;38813;-37
2022/12/29 15:30:23;;;;;;;5.10;3.20;;;;;;;;;;107995;1273;41271;-37
2022/12/29 15:32:53;;;;;;;5.80;3.50;;;;;;;;;;107888;1262;175733;-37
2022/12/29 15:35:34;;;;;;;5.60;3.30;;;;;;;;;;108142;1270;42431;-37
2022/12/29 15:38:16;;;;;;;5.40;3.10;;;;;;;;;;108146;1262;38915;-36
2022/12/29 15:40:46;;;;;;;5.40;3.50;;;;;;;;;;108186;1271;40053;-39
2022/12/29 15:43:33;;;;;;;4.70;3.10;;;;;;;;;;108074;1272;44456;-40
2022/12/29 15:46:06;;;;;;;5.60;3.30;;;;;;;;;;108083;1272;42158;-40
2022/12/29 15:48:37;;;;;;;5.70;3.80;;;;;;;;;;108057;1262;38750;-40
2022/12/29 15:51:21;;;;;;;6.70;3.70;;;;;;;;;;108046;1272;40851;-40
2022/12/29 15:53:53;;;;;;;6.00;3.20;;;;;;;;;;108125;1263;45228;-40
2022/12/29 15:56:23;;;;;;;5.60;3.60;;;;;;;;;;108228;1263;42025;-40
2022/12/29 15:58:54;;;;;;;6.00;3.50;;;;;;;;;;108172;1273;40595;-40
2022/12/29 16:01:31;;;;;;;5.10;3.30;;;;;;;;;;108140;1270;40392;-39
2022/12/29 16:04:06;;;;;;;5.50;2.90;;;;;;;;;;108019;1264;43312;-40
2022/12/29 16:06:37;;;;;;;5.40;3.40;;;;;;;;;;108026;1273;42461;-39
2022/12/29 16:09:16;;;;;;;5.30;3.10;;;;;;;;;;108018;1273;38945;-39